createdAt,value
2023-02-07T00:00:21.664Z,10.10
2023-02-07T00:02:49.244Z,9.93
2023-02-07T00:05:16.118Z,9.20
2023-02-07T00:07:42.889Z,10.20
2023-02-07T00:10:12.316Z,10.17
2023-02-07T00:12:38.984Z,11.20
2023-02-07T00:15:06.618Z,11.90
2023-02-07T00:17:33.456Z,9.60
2023-02-07T00:20:00.092Z,9.10
2023-02-07T00:22:27.034Z,9.50
2023-02-07T00:24:53.661Z,10.07
2023-02-07T00:27:20.317Z,8.27
2023-02-07T00:29:46.936Z,9.93
2023-02-07T00:32:13.956Z,11.67
2023-02-07T00:34:42.067Z,10.97
2023-02-07T00:37:09.742Z,10.63
2023-02-07T00:39:38.238Z,8.83
2023-02-07T00:42:05.300Z,8.37
2023-02-07T00:44:32.886Z,10.30
2023-02-07T00:46:59.923Z,10.40
2023-02-07T00:49:27.055Z,9.90
2023-02-07T00:51:53.723Z,8.40
2023-02-07T00:54:20.332Z,8.87
2023-02-07T00:56:46.967Z,12.80
2023-02-07T00:59:13.620Z,10.07
2023-02-07T01:01:40.349Z,10.13
2023-02-07T01:04:06.995Z,9.13
2023-02-07T01:06:35.776Z,13.17
2023-02-07T01:09:04.365Z,10.83
2023-02-07T01:11:31.609Z,9.27
2023-02-07T01:14:00.227Z,10.83
2023-02-07T01:16:30.758Z,10.37
2023-02-07T01:18:58.453Z,8.43
2023-02-07T01:21:26.824Z,8.07
2023-02-07T01:23:56.619Z,8.40
2023-02-07T01:26:25.050Z,9.43
2023-02-07T01:28:52.762Z,7.90
2023-02-07T01:31:19.519Z,9.60
2023-02-07T01:33:52.439Z,9.13
2023-02-07T01:36:19.033Z,8.63
2023-02-07T01:38:45.645Z,7.80
2023-02-07T01:41:13.557Z,10.10
2023-02-07T01:44:06.078Z,7.23
2023-02-07T01:46:34.925Z,9.67
2023-02-07T01:49:11.805Z,8.27
2023-02-07T01:51:42.673Z,8.67
2023-02-07T01:54:13.327Z,8.30
2023-02-07T01:56:45.237Z,8.30
2023-02-07T01:59:12.464Z,8.87
2023-02-07T02:01:40.626Z,10.77
2023-02-07T02:04:07.279Z,8.63
2023-02-07T02:06:35.448Z,9.97
2023-02-07T02:09:07.965Z,8.33
2023-02-07T02:11:49.516Z,8.83
2023-02-07T02:14:34.875Z,8.47
2023-02-07T02:17:33.393Z,8.87
2023-02-07T02:20:35.193Z,9.47
2023-02-07T02:23:41.399Z,9.03
2023-02-07T02:26:28.836Z,9.07
2023-02-07T02:29:40.710Z,9.43
2023-02-07T02:32:41.190Z,9.43
2023-02-07T02:35:31.064Z,11.23
2023-02-07T02:38:18.392Z,9.23
2023-02-07T02:40:55.325Z,9.10
2023-02-07T02:43:47.106Z,8.10
2023-02-07T02:46:36.422Z,7.70
2023-02-07T02:49:06.303Z,8.97
2023-02-07T02:51:32.925Z,9.17
2023-02-07T02:54:00.741Z,8.23
2023-02-07T02:57:08.441Z,10.23
2023-02-07T03:00:02.976Z,7.60
2023-02-07T03:02:57.530Z,9.00
2023-02-07T03:05:36.734Z,10.60
2023-02-07T03:08:23.526Z,9.23
2023-02-07T03:11:08.559Z,10.10
2023-02-07T03:13:53.143Z,8.87
2023-02-07T03:16:35.922Z,8.13
2023-02-07T03:19:11.843Z,7.67
2023-02-07T03:21:50.992Z,8.83
2023-02-07T03:24:28.553Z,8.43
2023-02-07T03:26:58.926Z,8.27
2023-02-07T03:29:28.148Z,10.60
2023-02-07T03:31:58.001Z,10.73
2023-02-07T03:35:12.174Z,9.17
2023-02-07T03:37:46.260Z,8.13
2023-02-07T03:40:13.646Z,9.00
2023-02-07T03:42:51.952Z,7.80
2023-02-07T03:45:20.633Z,9.80
2023-02-07T03:47:48.175Z,9.87
2023-02-07T03:50:16.168Z,10.23
2023-02-07T03:52:42.997Z,10.80
2023-02-07T03:55:10.401Z,9.07
2023-02-07T03:57:37.228Z,9.60
2023-02-07T04:00:05.759Z,8.13
2023-02-07T04:02:39.317Z,9.33
2023-02-07T04:05:06.485Z,11.37
2023-02-07T04:07:33.346Z,9.27
2023-02-07T04:09:59.946Z,11.10
2023-02-07T04:12:32.687Z,8.20
2023-02-07T04:15:00.335Z,10.03
2023-02-07T04:17:29.024Z,10.37
2023-02-07T04:19:57.763Z,9.20
2023-02-07T04:22:24.454Z,8.57
2023-02-07T04:24:51.038Z,8.87
2023-02-07T04:27:17.689Z,8.30
2023-02-07T04:29:44.358Z,8.97
2023-02-07T04:32:11.052Z,9.83
2023-02-07T04:34:37.640Z,9.83
2023-02-07T04:37:04.357Z,8.97
2023-02-07T04:39:30.962Z,8.03
2023-02-07T04:41:57.645Z,9.47
2023-02-07T04:44:24.317Z,8.20
2023-02-07T04:46:51.233Z,9.87
2023-02-07T04:49:17.833Z,8.60
2023-02-07T04:51:44.477Z,10.33
2023-02-07T04:54:11.323Z,11.30
2023-02-07T04:56:37.914Z,8.67
2023-02-07T04:59:04.550Z,10.87
2023-02-07T05:01:31.848Z,10.33
2023-02-07T05:03:58.421Z,9.13
2023-02-07T05:06:25.038Z,8.90
2023-02-07T05:08:51.838Z,9.73
2023-02-07T05:11:19.497Z,9.67
2023-02-07T05:13:46.161Z,9.53
2023-02-07T05:16:12.794Z,8.37
2023-02-07T05:18:39.461Z,10.00
2023-02-07T05:21:06.117Z,13.93
2023-02-07T05:23:32.796Z,10.57
2023-02-07T05:25:59.467Z,9.30
2023-02-07T05:28:26.206Z,9.73
2023-02-07T05:30:55.220Z,12.13
2023-02-07T05:33:21.878Z,11.43
2023-02-07T05:35:48.442Z,9.50
2023-02-07T05:38:17.391Z,11.83
2023-02-07T05:40:44.899Z,8.90
2023-02-07T05:43:12.431Z,25.53
2023-02-07T05:45:39.752Z,10.43
2023-02-07T05:48:07.285Z,10.23
2023-02-07T05:50:34.430Z,13.90
2023-02-07T05:53:10.429Z,11.43
2023-02-07T05:55:37.728Z,12.10
2023-02-07T05:58:04.584Z,10.70
2023-02-07T06:00:31.244Z,18.33
2023-02-07T06:02:57.866Z,12.07
2023-02-07T06:05:24.838Z,11.53
2023-02-07T06:07:51.849Z,10.73
2023-02-07T06:10:18.609Z,11.60
2023-02-07T06:12:45.438Z,14.43
2023-02-07T06:15:12.225Z,10.20
2023-02-07T06:17:38.930Z,9.93
2023-02-07T06:20:06.055Z,11.10
2023-02-07T06:22:32.703Z,11.40
2023-02-07T06:24:59.296Z,11.67
2023-02-07T06:27:25.956Z,12.57
2023-02-07T06:29:52.560Z,12.27
2023-02-07T06:32:19.222Z,12.37
2023-02-07T06:34:45.910Z,11.47
2023-02-07T06:37:12.596Z,10.33
2023-02-07T06:39:40.029Z,11.53
2023-02-07T06:42:06.728Z,11.43
2023-02-07T06:44:33.362Z,13.00
2023-02-07T06:47:00.013Z,12.53
2023-02-07T06:49:26.596Z,14.10
2023-02-07T06:51:53.192Z,11.53
2023-02-07T06:54:19.878Z,14.20
2023-02-07T06:56:46.464Z,14.57
2023-02-07T06:59:13.124Z,12.20
2023-02-07T07:01:39.856Z,12.33
2023-02-07T07:04:06.499Z,13.47
2023-02-07T07:06:33.197Z,13.40
2023-02-07T07:08:59.805Z,12.40
2023-02-07T07:11:26.488Z,13.23
2023-02-07T07:13:53.102Z,13.00
2023-02-07T07:16:19.986Z,12.33
2023-02-07T07:18:46.753Z,15.33
2023-02-07T07:21:13.404Z,13.07
2023-02-07T07:23:40.039Z,11.90
2023-02-07T07:26:06.746Z,13.57
2023-02-07T07:28:33.437Z,11.10
2023-02-07T07:31:08.171Z,14.60
2023-02-07T07:33:35.255Z,13.33
2023-02-07T07:36:03.522Z,13.97
2023-02-07T07:38:30.908Z,13.17
2023-02-07T07:40:57.661Z,14.07
2023-02-07T07:43:24.648Z,12.60
2023-02-07T07:45:57.637Z,12.67
2023-02-07T07:48:25.091Z,13.07
2023-02-07T07:50:53.033Z,11.80
2023-02-07T07:53:20.428Z,12.77
2023-02-07T07:55:55.467Z,12.57
2023-02-07T07:58:23.888Z,13.57
2023-02-07T08:00:50.811Z,12.77
2023-02-07T08:03:21.645Z,14.10
2023-02-07T08:05:48.841Z,16.50
2023-02-07T08:08:16.760Z,13.80
2023-02-07T08:10:43.357Z,14.03
2023-02-07T08:13:10.055Z,14.53
2023-02-07T08:15:36.928Z,14.17
2023-02-07T08:18:03.886Z,14.17
2023-02-07T08:20:30.522Z,17.00
2023-02-07T08:22:57.991Z,14.37
2023-02-07T08:25:25.296Z,16.10
2023-02-07T08:27:52.266Z,15.73
2023-02-07T08:30:19.136Z,14.77
2023-02-07T08:32:45.737Z,13.17
2023-02-07T08:35:12.392Z,15.30
2023-02-07T08:37:39.238Z,13.43
2023-02-07T08:40:06.798Z,15.20
2023-02-07T08:42:33.495Z,14.93
2023-02-07T08:45:00.170Z,15.77
2023-02-07T08:47:26.828Z,16.60
2023-02-07T08:49:53.475Z,15.73
2023-02-07T08:52:20.098Z,16.23
2023-02-07T08:54:46.702Z,17.10
2023-02-07T08:57:14.808Z,15.47
2023-02-07T08:59:41.692Z,15.97
2023-02-07T09:02:10.664Z,15.87
2023-02-07T09:04:37.373Z,15.27
2023-02-07T09:07:04.009Z,18.30
2023-02-07T09:09:32.978Z,19.00
2023-02-07T09:11:59.800Z,18.37
2023-02-07T09:14:26.487Z,18.03
2023-02-07T09:16:53.195Z,19.87
2023-02-07T09:19:20.197Z,16.87
2023-02-07T09:21:46.877Z,19.33
2023-02-07T09:24:13.540Z,17.23
2023-02-07T09:26:40.200Z,19.43
2023-02-07T09:29:07.949Z,17.63
2023-02-07T09:31:34.997Z,17.30
2023-02-07T09:34:02.686Z,18.60
2023-02-07T09:36:30.649Z,17.33
2023-02-07T09:38:58.373Z,17.20
2023-02-07T09:41:54.766Z,17.63
2023-02-07T09:44:29.569Z,17.03
2023-02-07T09:47:03.446Z,16.53
2023-02-07T09:49:34.816Z,18.23
2023-02-07T09:52:03.803Z,20.20
2023-02-07T09:54:42.019Z,17.47
2023-02-07T09:57:16.577Z,17.87
2023-02-07T09:59:50.271Z,17.90
2023-02-07T10:02:39.442Z,18.57
2023-02-07T10:05:19.399Z,19.40
2023-02-07T10:07:48.053Z,16.93
2023-02-07T10:10:25.285Z,21.03
2023-02-07T10:13:00.382Z,18.27
2023-02-07T10:15:59.109Z,17.40
2023-02-07T10:18:44.446Z,17.43
2023-02-07T10:21:29.411Z,21.83
2023-02-07T10:24:23.319Z,19.73
2023-02-07T10:26:54.564Z,19.57
2023-02-07T10:29:26.684Z,20.07
2023-02-07T10:31:55.602Z,21.33
2023-02-07T10:34:27.023Z,20.73
2023-02-07T10:36:57.606Z,20.00
2023-02-07T10:39:37.284Z,18.70
2023-02-07T10:42:04.038Z,18.47
2023-02-07T10:44:30.895Z,19.63
2023-02-07T10:47:04.621Z,19.70
2023-02-07T10:49:34.505Z,21.57
2023-02-07T10:52:28.566Z,21.07
2023-02-07T10:54:57.957Z,20.17
2023-02-07T10:57:26.493Z,21.23
2023-02-07T11:00:12.221Z,19.40
2023-02-07T11:02:48.174Z,21.43
2023-02-07T11:05:17.653Z,21.97
2023-02-07T11:07:59.605Z,20.53
2023-02-07T11:10:35.366Z,22.87
2023-02-07T11:13:03.096Z,20.97
2023-02-07T11:15:58.439Z,23.67
2023-02-07T11:18:43.482Z,21.83
2023-02-07T11:21:39.564Z,21.63
2023-02-07T11:24:29.695Z,24.93
2023-02-07T11:27:07.038Z,24.63
2023-02-07T11:30:06.800Z,26.70
2023-02-07T11:32:36.165Z,22.97
2023-02-07T11:35:09.428Z,22.93
2023-02-07T11:37:47.481Z,23.53
2023-02-07T11:40:28.224Z,25.17
2023-02-07T11:43:03.452Z,23.53
2023-02-07T11:45:34.221Z,24.63
2023-02-07T11:48:01.897Z,25.57
2023-02-07T11:50:36.709Z,24.43
2023-02-07T11:53:03.560Z,25.03
2023-02-07T11:55:44.177Z,25.10
2023-02-07T11:58:20.358Z,24.50
2023-02-07T12:00:47.530Z,23.37
2023-02-07T12:03:40.155Z,26.97
2023-02-07T12:06:11.874Z,25.10
2023-02-07T12:08:41.232Z,25.47
2023-02-07T12:11:14.953Z,23.33
2023-02-07T12:13:50.026Z,23.97
2023-02-07T12:16:22.817Z,23.40
2023-02-07T12:18:54.918Z,24.73
2023-02-07T12:21:34.597Z,27.00
2023-02-07T12:24:05.724Z,24.73
2023-02-07T12:26:40.227Z,25.13
2023-02-07T12:29:39.287Z,24.37
2023-02-07T12:32:17.787Z,27.13
2023-02-07T12:34:50.522Z,25.43
2023-02-07T12:37:50.709Z,24.83
2023-02-07T12:40:44.451Z,95.83
2023-02-07T12:43:25.780Z,24.10
2023-02-07T12:46:16.897Z,22.90
2023-02-07T12:49:07.594Z,22.33
2023-02-07T12:51:46.389Z,22.60
2023-02-07T12:54:21.135Z,22.83
2023-02-07T12:57:04.644Z,23.40
2023-02-07T12:59:51.074Z,25.00
2023-02-07T13:02:53.462Z,23.07
2023-02-07T13:05:53.549Z,23.23
2023-02-07T13:08:23.117Z,25.13
2023-02-07T13:11:01.853Z,25.27
2023-02-07T13:13:41.317Z,25.93
2023-02-07T13:16:15.813Z,26.43
2023-02-07T13:19:04.644Z,25.17
2023-02-07T13:22:11.802Z,25.97
2023-02-07T13:24:41.575Z,25.43
2023-02-07T13:27:17.401Z,24.93
2023-02-07T13:29:45.807Z,25.67
2023-02-07T13:32:26.764Z,23.43
2023-02-07T13:35:04.216Z,23.97
2023-02-07T13:37:46.523Z,23.77
2023-02-07T13:40:51.260Z,24.03
2023-02-07T13:44:09.311Z,25.53
2023-02-07T13:46:58.001Z,27.90
2023-02-07T13:49:42.969Z,23.53
2023-02-07T13:52:21.527Z,23.57
2023-02-07T13:55:08.358Z,24.77
2023-02-07T13:57:53.542Z,23.33
2023-02-07T14:00:23.660Z,23.33
2023-02-07T14:03:02.100Z,21.97
2023-02-07T14:05:34.387Z,23.27
2023-02-07T14:08:04.409Z,23.33
2023-02-07T14:10:42.780Z,22.90
2023-02-07T14:13:24.204Z,22.23
2023-02-07T14:15:57.277Z,21.37
2023-02-07T14:18:44.343Z,22.03
2023-02-07T14:21:20.060Z,21.00
2023-02-07T14:24:16.751Z,22.47
2023-02-07T14:26:59.142Z,22.00
2023-02-07T14:29:27.508Z,22.97
2023-02-07T14:32:00.961Z,22.03
2023-02-07T14:34:51.821Z,22.77
2023-02-07T14:37:35.492Z,19.83
2023-02-07T14:40:43.573Z,20.40
2023-02-07T14:43:13.984Z,18.47
2023-02-07T14:45:50.783Z,18.30
2023-02-07T14:48:45.695Z,18.07
2023-02-07T14:51:22.133Z,18.40
2023-02-07T14:54:17.221Z,16.67
2023-02-07T14:56:49.690Z,16.83
2023-02-07T14:59:30.628Z,17.37
2023-02-07T15:01:57.269Z,16.47
2023-02-07T15:04:23.959Z,16.93
2023-02-07T15:06:51.342Z,15.93
2023-02-07T15:09:26.180Z,15.87
2023-02-07T15:12:10.490Z,15.97
2023-02-07T15:14:42.860Z,16.00
2023-02-07T15:17:10.867Z,15.90
2023-02-07T15:19:40.664Z,15.93
2023-02-07T15:22:23.931Z,15.07
2023-02-07T15:24:55.116Z,14.30
2023-02-07T15:27:32.054Z,15.10
2023-02-07T15:30:05.259Z,16.73
2023-02-07T15:32:34.597Z,16.80
2023-02-07T15:35:20.609Z,19.17
2023-02-07T15:37:48.883Z,19.40
2023-02-07T15:40:17.397Z,20.03
2023-02-07T15:42:56.335Z,22.13
2023-02-07T15:45:29.227Z,18.70
2023-02-07T15:48:14.338Z,20.87
2023-02-07T15:50:41.636Z,19.73
2023-02-07T15:53:09.185Z,21.73
2023-02-07T15:55:43.080Z,22.23
2023-02-07T15:58:21.039Z,20.77
2023-02-07T16:00:47.681Z,21.43
2023-02-07T16:03:31.442Z,21.50
2023-02-07T16:06:06.841Z,21.60
2023-02-07T16:08:41.149Z,20.90
2023-02-07T16:11:25.855Z,21.03
2023-02-07T16:14:20.254Z,21.50
2023-02-07T16:16:48.458Z,22.07
2023-02-07T16:19:15.063Z,21.87
2023-02-07T16:21:43.299Z,19.43
2023-02-07T16:24:19.720Z,20.83
2023-02-07T16:26:47.236Z,22.63
2023-02-07T16:29:17.734Z,20.83
2023-02-07T16:31:44.608Z,20.83
2023-02-07T16:34:13.694Z,19.67
2023-02-07T16:36:40.810Z,20.73
2023-02-07T16:39:08.357Z,22.07
2023-02-07T16:41:39.348Z,20.93
2023-02-07T16:44:07.989Z,21.10
2023-02-07T16:46:36.911Z,22.10
2023-02-07T16:49:12.911Z,24.93
2023-02-07T16:51:39.912Z,21.90
2023-02-07T16:54:06.540Z,21.90
2023-02-07T16:56:33.480Z,22.83
2023-02-07T16:59:00.056Z,23.60
2023-02-07T17:01:26.763Z,22.83
2023-02-07T17:03:53.444Z,24.20
2023-02-07T17:06:22.893Z,22.97
2023-02-07T17:08:50.953Z,23.13
2023-02-07T17:11:24.754Z,24.67
2023-02-07T17:13:56.087Z,22.60
2023-02-07T17:16:24.857Z,22.50
2023-02-07T17:18:52.345Z,23.50
2023-02-07T17:21:19.278Z,25.53
2023-02-07T17:23:47.597Z,21.67
2023-02-07T17:26:34.845Z,22.00
2023-02-07T17:29:01.467Z,22.90
2023-02-07T17:31:28.290Z,22.60
2023-02-07T17:33:56.502Z,22.90
2023-02-07T17:36:23.395Z,23.57
2023-02-07T17:38:50.250Z,22.13
2023-02-07T17:41:17.866Z,21.93
2023-02-07T17:43:44.824Z,23.00
2023-02-07T17:46:25.945Z,22.10
2023-02-07T17:48:54.101Z,26.47
2023-02-07T17:51:23.429Z,25.17
2023-02-07T17:53:50.747Z,24.10
2023-02-07T17:56:26.565Z,21.37
2023-02-07T17:58:54.906Z,23.53
2023-02-07T18:01:22.124Z,23.27
2023-02-07T18:03:50.673Z,24.13
2023-02-07T18:06:19.533Z,21.43
2023-02-07T18:08:46.802Z,22.30
2023-02-07T18:11:14.237Z,24.80
2023-02-07T18:13:42.506Z,24.13
2023-02-07T18:16:13.301Z,25.13
2023-02-07T18:18:39.996Z,24.60
2023-02-07T18:21:06.993Z,25.43
2023-02-07T18:23:33.741Z,26.37
2023-02-07T18:26:00.763Z,25.70
2023-02-07T18:28:27.738Z,27.33
2023-02-07T18:30:54.436Z,25.47
2023-02-07T18:33:21.112Z,27.43
2023-02-07T18:35:51.255Z,23.60
2023-02-07T18:38:18.013Z,23.77
2023-02-07T18:40:44.633Z,22.53
2023-02-07T18:43:11.267Z,23.27
2023-02-07T18:45:41.930Z,20.87
2023-02-07T18:48:09.411Z,23.87
2023-02-07T18:50:36.027Z,20.60
2023-02-07T18:53:02.651Z,24.03
2023-02-07T18:55:29.259Z,24.83
2023-02-07T18:57:57.528Z,24.47
2023-02-07T19:00:24.180Z,21.87
2023-02-07T19:02:50.834Z,24.20
2023-02-07T19:05:17.652Z,21.60
2023-02-07T19:07:44.403Z,25.33
2023-02-07T19:10:12.214Z,24.73
2023-02-07T19:12:39.618Z,23.30
2023-02-07T19:15:06.768Z,23.37
2023-02-07T19:17:34.263Z,22.67
2023-02-07T19:20:00.980Z,27.37
2023-02-07T19:22:35.311Z,23.40
2023-02-07T19:25:03.440Z,21.80
2023-02-07T19:27:30.039Z,21.23
2023-02-07T19:29:56.650Z,23.03
2023-02-07T19:32:23.242Z,21.43
2023-02-07T19:34:50.130Z,24.07
2023-02-07T19:37:16.806Z,24.70
2023-02-07T19:39:46.005Z,27.50
2023-02-07T19:42:12.820Z,24.97
2023-02-07T19:44:39.462Z,23.50
2023-02-07T19:47:06.134Z,26.37
2023-02-07T19:49:32.750Z,22.00
2023-02-07T19:51:59.360Z,25.50
2023-02-07T19:54:26.030Z,23.13
2023-02-07T19:56:52.664Z,21.90
2023-02-07T19:59:19.363Z,21.10
2023-02-07T20:01:46.009Z,22.00
2023-02-07T20:04:12.716Z,24.93
2023-02-07T20:06:39.386Z,22.83
2023-02-07T20:09:07.536Z,20.27
2023-02-07T20:11:34.842Z,22.97
2023-02-07T20:14:06.699Z,22.60
2023-02-07T20:16:36.539Z,26.80
2023-02-07T20:19:05.772Z,24.20
2023-02-07T20:21:33.618Z,23.40
2023-02-07T20:24:00.858Z,19.93
2023-02-07T20:26:34.134Z,21.53
2023-02-07T20:29:02.356Z,23.33
2023-02-07T20:31:31.678Z,21.37
2023-02-07T20:34:02.225Z,21.43
2023-02-07T20:36:30.307Z,24.50
2023-02-07T20:38:58.360Z,22.10
2023-02-07T20:41:29.364Z,22.23
2023-02-07T20:44:04.743Z,21.37
2023-02-07T20:46:34.225Z,20.70
2023-02-07T20:49:08.273Z,20.27
2023-02-07T20:51:35.192Z,21.43
2023-02-07T20:54:03.650Z,20.97
2023-02-07T20:56:33.738Z,20.70
2023-02-07T20:59:00.586Z,24.10
2023-02-07T21:01:29.349Z,19.67
2023-02-07T21:03:58.151Z,18.90
2023-02-07T21:06:25.316Z,19.17
2023-02-07T21:09:00.033Z,20.27
2023-02-07T21:11:28.961Z,20.33
2023-02-07T21:13:56.048Z,23.10
2023-02-07T21:16:23.456Z,20.53
2023-02-07T21:18:50.521Z,22.60
2023-02-07T21:21:18.671Z,23.63
2023-02-07T21:23:45.471Z,23.80
2023-02-07T21:26:14.248Z,22.53
2023-02-07T21:28:41.739Z,21.20
2023-02-07T21:31:12.248Z,21.97
2023-02-07T21:33:38.861Z,20.00
2023-02-07T21:36:06.766Z,20.00
2023-02-07T21:38:34.014Z,22.20
2023-02-07T21:41:01.669Z,22.60
2023-02-07T21:43:28.259Z,20.73
2023-02-07T21:46:02.828Z,21.33
2023-02-07T21:48:29.531Z,22.07
2023-02-07T21:51:10.452Z,26.97
2023-02-07T21:53:37.997Z,21.93
2023-02-07T21:56:16.798Z,23.07
2023-02-07T21:58:44.294Z,21.73
2023-02-07T22:01:12.427Z,19.80
2023-02-07T22:03:40.544Z,19.20
2023-02-07T22:06:08.340Z,20.33
2023-02-07T22:08:36.161Z,20.93
2023-02-07T22:11:08.926Z,21.90
2023-02-07T22:13:38.035Z,18.33
2023-02-07T22:16:05.450Z,19.53
2023-02-07T22:18:32.115Z,19.40
2023-02-07T22:21:16.987Z,19.33
2023-02-07T22:23:43.863Z,18.50
2023-02-07T22:26:11.049Z,19.60
2023-02-07T22:28:39.274Z,17.33
2023-02-07T22:31:14.651Z,18.97
2023-02-07T22:33:41.672Z,17.93
2023-02-07T22:36:15.989Z,19.27
2023-02-07T22:38:42.706Z,19.53
2023-02-07T22:41:09.690Z,17.80
2023-02-07T22:43:37.095Z,16.90
2023-02-07T22:46:05.961Z,16.13
2023-02-07T22:48:33.349Z,17.03
2023-02-07T22:51:09.889Z,20.27
2023-02-07T22:53:36.477Z,19.80
2023-02-07T22:56:03.205Z,17.83
2023-02-07T22:58:29.910Z,18.83
2023-02-07T23:00:56.521Z,17.33
2023-02-07T23:03:23.188Z,16.47
2023-02-07T23:05:49.837Z,19.40
2023-02-07T23:08:16.412Z,18.20
2023-02-07T23:10:43.667Z,16.93
2023-02-07T23:13:10.644Z,19.03
2023-02-07T23:15:37.346Z,17.60
2023-02-07T23:18:04.765Z,18.00
2023-02-07T23:20:31.372Z,17.50
2023-02-07T23:22:58.008Z,17.60
2023-02-07T23:25:24.622Z,19.30
2023-02-07T23:27:51.294Z,17.60
2023-02-07T23:30:17.921Z,19.17
2023-02-07T23:32:44.520Z,19.37
2023-02-07T23:35:11.192Z,22.33
2023-02-07T23:37:37.791Z,18.30
2023-02-07T23:40:04.834Z,17.63
2023-02-07T23:42:31.534Z,17.13
2023-02-07T23:44:58.154Z,18.20
2023-02-07T23:47:24.731Z,20.67
2023-02-07T23:49:51.318Z,19.33
2023-02-07T23:52:18.012Z,19.67
2023-02-07T23:54:44.641Z,20.00
2023-02-07T23:57:11.286Z,18.33
2023-02-07T23:59:37.884Z,18.50
